createdAt,value
2017-05-17T00:00:05.534Z,47.1
2017-05-17T00:02:05.311Z,47.1
2017-05-17T00:04:08.058Z,47.1
2017-05-17T00:06:13.408Z,47
2017-05-17T00:08:05.200Z,47
2017-05-17T00:10:05.990Z,47.1
2017-05-17T00:12:05.853Z,47
2017-05-17T00:14:05.658Z,47
2017-05-17T00:16:05.363Z,47
2017-05-17T00:18:08.295Z,47
2017-05-17T00:20:05.964Z,47
2017-05-17T00:22:08.231Z,46.9
2017-05-17T00:24:06.340Z,46.9
2017-05-17T00:26:07.675Z,46.9
2017-05-17T00:28:05.389Z,46.9
2017-05-17T00:30:05.262Z,46.9
2017-05-17T00:32:05.968Z,46.9
2017-05-17T00:34:08.193Z,46.9
2017-05-17T00:36:06.308Z,46.9
2017-05-17T00:38:05.523Z,46.8
2017-05-17T00:40:05.345Z,46.9
2017-05-17T00:42:07.881Z,46.9
2017-05-17T00:44:10.692Z,46.9
2017-05-17T00:46:05.340Z,46.9
2017-05-17T00:48:05.126Z,46.8
2017-05-17T00:50:05.798Z,46.8
2017-05-17T00:52:05.491Z,46.9
2017-05-17T00:54:05.382Z,46.8
2017-05-17T00:56:05.344Z,46.9
2017-05-17T00:58:05.082Z,46.8
2017-05-17T01:00:05.863Z,46.8
2017-05-17T01:02:05.644Z,46.8
2017-05-17T01:04:05.333Z,46.8
2017-05-17T01:06:05.054Z,46.8
2017-05-17T01:08:05.736Z,46.8
2017-05-17T01:10:05.531Z,46.9
2017-05-17T01:12:06.007Z,46.9
2017-05-17T01:14:05.748Z,46.9
2017-05-17T01:16:05.486Z,46.9
2017-05-17T01:18:05.788Z,46.9
2017-05-17T01:20:05.051Z,46.8
2017-05-17T01:22:08.346Z,46.8
2017-05-17T01:24:05.099Z,46.8
2017-05-17T01:26:05.821Z,46.8
2017-05-17T01:28:08.227Z,46.8
2017-05-17T01:30:05.912Z,46.8
2017-05-17T01:32:08.153Z,46.8
2017-05-17T01:34:08.470Z,46.8
2017-05-17T01:36:07.880Z,46.7
2017-05-17T01:38:05.716Z,46.7
2017-05-17T01:40:07.972Z,46.7
2017-05-17T01:42:07.952Z,46.6
2017-05-17T01:44:08.573Z,46.7
2017-05-17T01:46:05.875Z,46.7
2017-05-17T01:48:05.582Z,46.7
2017-05-17T01:50:10.355Z,46.4
2017-05-17T01:52:10.058Z,46.4
2017-05-17T01:54:08.293Z,46.6
2017-05-17T01:56:05.977Z,46.4
2017-05-17T01:58:05.728Z,46.6
2017-05-17T02:00:08.062Z,46.3
2017-05-17T02:02:05.777Z,46.3
2017-05-17T02:04:05.464Z,46.2
2017-05-17T02:06:05.233Z,46.3
2017-05-17T02:08:05.911Z,46.3
2017-05-17T02:10:05.643Z,46
2017-05-17T02:12:05.458Z,45.9
2017-05-17T02:14:05.166Z,45.9
2017-05-17T02:16:06.037Z,45.9
2017-05-17T02:18:05.968Z,46
2017-05-17T02:20:05.697Z,45.7
2017-05-17T02:22:05.414Z,45.6
2017-05-17T02:24:05.094Z,45.5
2017-05-17T02:26:05.299Z,45.4
2017-05-17T02:28:11.046Z,45.4
2017-05-17T02:30:05.813Z,45.4
2017-05-17T02:32:05.595Z,45.7
2017-05-17T02:34:05.357Z,45.4
2017-05-17T02:36:05.261Z,45.4
2017-05-17T02:38:08.524Z,45.4
2017-05-17T02:40:05.267Z,45.4
2017-05-17T02:42:06.087Z,45.4
2017-05-17T02:44:05.781Z,45.4
2017-05-17T02:46:10.580Z,45.4
2017-05-17T02:48:05.629Z,45.4
2017-05-17T02:50:07.942Z,45.4
2017-05-17T02:52:13.259Z,45.4
2017-05-17T02:54:10.476Z,45.4
2017-05-17T02:56:05.190Z,45.4
2017-05-17T02:58:05.873Z,45.4
2017-05-17T03:00:05.724Z,45.4
2017-05-17T03:02:05.419Z,45.4
2017-05-17T03:04:05.282Z,45.4
2017-05-17T03:06:06.004Z,45.4
2017-05-17T03:08:05.754Z,45.3
2017-05-17T03:10:05.538Z,45.2
2017-05-17T03:12:05.409Z,45.1
2017-05-17T03:14:05.120Z,45
2017-05-17T03:16:05.825Z,45
2017-05-17T03:18:05.828Z,44.9
2017-05-17T03:20:05.124Z,44.8
2017-05-17T03:22:10.953Z,44.6
2017-05-17T03:24:08.312Z,44.6
2017-05-17T03:26:05.015Z,44.6
2017-05-17T03:28:05.748Z,44.5
2017-05-17T03:30:07.959Z,44.1
2017-05-17T03:32:08.305Z,44.2
2017-05-17T03:34:08.166Z,44.3
2017-05-17T03:36:06.017Z,44
2017-05-17T03:38:05.816Z,44.1
2017-05-17T03:40:05.044Z,43.9
2017-05-17T03:42:05.940Z,44.1
2017-05-17T03:44:05.652Z,44
2017-05-17T03:46:05.366Z,43.8
2017-05-17T03:48:05.082Z,43.9
2017-05-17T03:50:10.356Z,43.5
2017-05-17T03:52:05.072Z,43.5
2017-05-17T03:54:05.810Z,43.5
2017-05-17T03:56:05.508Z,43.5
2017-05-17T03:58:05.226Z,43.4
2017-05-17T04:00:08.557Z,43.2
2017-05-17T04:02:05.825Z,43.2
2017-05-17T04:04:07.615Z,43.1
2017-05-17T04:06:05.492Z,43.1
2017-05-17T04:08:10.567Z,43.1
2017-05-17T04:10:07.811Z,43
2017-05-17T04:12:05.749Z,43
2017-05-17T04:14:06.001Z,43
2017-05-17T04:16:08.271Z,42.9
2017-05-17T04:18:11.145Z,42.8
2017-05-17T04:20:08.406Z,42.8
2017-05-17T04:22:07.634Z,42.8
2017-05-17T04:24:07.955Z,42.8
2017-05-17T04:26:05.700Z,42.8
2017-05-17T04:28:10.556Z,42.6
2017-05-17T04:30:05.393Z,42.6
2017-05-17T04:32:05.296Z,42.6
2017-05-17T04:34:05.869Z,42.6
2017-05-17T04:36:05.709Z,42.6
2017-05-17T04:38:05.526Z,42.5
2017-05-17T04:40:07.889Z,42.5
2017-05-17T04:42:05.624Z,42.4
2017-05-17T04:44:05.353Z,42.4
2017-05-17T04:46:05.131Z,42.4
2017-05-17T04:48:06.128Z,42.3
2017-05-17T04:50:05.816Z,42.3
2017-05-17T04:52:08.205Z,42.3
2017-05-17T04:54:05.370Z,42.5
2017-05-17T04:56:05.245Z,42.2
2017-05-17T04:58:08.471Z,42.3
2017-05-17T05:00:07.756Z,42.3
2017-05-17T05:02:06.168Z,42.3
2017-05-17T05:04:05.994Z,42.3
2017-05-17T05:06:05.863Z,42.5
2017-05-17T05:08:08.131Z,42.4
2017-05-17T05:10:05.436Z,42.5
2017-05-17T05:12:05.949Z,42.5
2017-05-17T05:14:08.272Z,42.6
2017-05-17T05:16:06.027Z,42.4
2017-05-17T05:18:05.939Z,42.6
2017-05-17T05:20:05.683Z,42.4
2017-05-17T05:22:07.948Z,42.4
2017-05-17T05:24:08.364Z,42.4
2017-05-17T05:26:10.164Z,42.4
2017-05-17T05:28:06.193Z,42.4
2017-05-17T05:30:06.019Z,42.3
2017-05-17T05:32:05.727Z,42.5
2017-05-17T05:34:08.031Z,42.4
2017-05-17T05:36:06.121Z,42.4
2017-05-17T05:38:05.773Z,42.4
2017-05-17T05:40:06.008Z,42.5
2017-05-17T05:42:06.064Z,42.4
2017-05-17T05:44:05.927Z,42.4
2017-05-17T05:46:05.654Z,42.4
2017-05-17T05:48:08.303Z,42.3
2017-05-17T05:50:11.041Z,42.3
2017-05-17T05:52:07.002Z,42.3
2017-05-17T05:54:05.944Z,42.2
2017-05-17T05:56:08.163Z,42.2
2017-05-17T05:58:05.838Z,42.2
2017-05-17T06:00:05.968Z,42.2
2017-05-17T06:02:05.221Z,42.3
2017-05-17T06:04:05.951Z,42.2
2017-05-17T06:06:05.943Z,42.2
2017-05-17T06:08:05.611Z,42.2
2017-05-17T06:10:05.360Z,42.2
2017-05-17T06:12:05.283Z,42.1
2017-05-17T06:14:05.960Z,42.1
2017-05-17T06:16:05.827Z,42.1
2017-05-17T06:18:05.797Z,42.1
2017-05-17T06:20:05.466Z,42.1
2017-05-17T06:22:05.205Z,42.1
2017-05-17T06:24:08.537Z,42
2017-05-17T06:26:05.277Z,42
2017-05-17T06:28:05.233Z,42
2017-05-17T06:30:06.334Z,42
2017-05-17T06:32:05.810Z,42.2
2017-05-17T06:34:06.758Z,42
2017-05-17T06:36:05.541Z,42.2
2017-05-17T06:38:05.360Z,42.1
2017-05-17T06:40:05.141Z,42.3
2017-05-17T06:42:06.176Z,42.3
2017-05-17T06:44:05.428Z,42.2
2017-05-17T06:46:05.220Z,42.2
2017-05-17T06:48:06.296Z,42.2
2017-05-17T06:50:05.562Z,42.2
2017-05-17T06:52:05.865Z,42.2
2017-05-17T06:54:05.713Z,42.2
2017-05-17T06:56:05.456Z,42.4
2017-05-17T06:58:07.217Z,42.3
2017-05-17T07:00:06.278Z,42.3
2017-05-17T07:02:07.675Z,42.1
2017-05-17T07:04:05.586Z,42.1
2017-05-17T07:06:08.422Z,42.2
2017-05-17T07:08:05.113Z,42.2
2017-05-17T07:10:06.943Z,42.2
2017-05-17T07:12:05.376Z,42.2
2017-05-17T07:14:05.022Z,42.2
2017-05-17T07:16:08.266Z,42.2
2017-05-17T07:18:05.408Z,42.2
2017-05-17T07:20:05.458Z,42.2
2017-05-17T07:22:05.657Z,42.2
2017-05-17T07:24:05.375Z,42.1
2017-05-17T07:26:05.064Z,42.3
2017-05-17T07:28:10.839Z,42.2
2017-05-17T07:30:05.605Z,42.2
2017-05-17T07:32:05.347Z,42.2
2017-05-17T07:34:07.576Z,42.3
2017-05-17T07:36:10.493Z,42.2
2017-05-17T07:38:05.169Z,42.2
2017-05-17T07:40:05.944Z,42.4
2017-05-17T07:42:05.708Z,42.3
2017-05-17T07:44:05.999Z,42.3
2017-05-17T07:46:05.916Z,42.3
2017-05-17T07:48:05.649Z,42.3
2017-05-17T07:50:05.898Z,42.4
2017-05-17T07:52:12.718Z,42.4
2017-05-17T07:54:05.648Z,42.3
2017-05-17T07:56:10.384Z,42.5
2017-05-17T07:58:05.069Z,42.5
2017-05-17T08:00:06.054Z,42.5
2017-05-17T08:02:05.761Z,42.5
2017-05-17T08:04:05.567Z,42.7
2017-05-17T08:06:05.691Z,42.7
2017-05-17T08:08:08.154Z,42.6
2017-05-17T08:10:05.872Z,42.6
2017-05-17T08:12:05.169Z,42.6
2017-05-17T08:14:05.859Z,42.5
2017-05-17T08:16:05.836Z,42.7
2017-05-17T08:18:06.000Z,42.6
2017-05-17T08:20:08.334Z,42.5
2017-05-17T08:22:05.031Z,42.5
2017-05-17T08:24:10.704Z,42.4
2017-05-17T08:26:05.519Z,42.4
2017-05-17T08:28:05.235Z,42.6
2017-05-17T08:30:06.190Z,42.6
2017-05-17T08:32:05.863Z,42.6
2017-05-17T08:34:05.151Z,42.6
2017-05-17T08:36:08.450Z,42.7
2017-05-17T08:38:05.133Z,42.7
2017-05-17T08:40:05.355Z,42.8
2017-05-17T08:42:05.134Z,42.6
2017-05-17T08:44:05.336Z,42.6
2017-05-17T08:46:05.568Z,42.8
2017-05-17T08:48:05.933Z,42.8
2017-05-17T08:50:07.714Z,42.6
2017-05-17T08:52:05.938Z,42.6
2017-05-17T08:54:08.214Z,42.8
2017-05-17T08:56:06.076Z,42.8
2017-05-17T08:58:05.807Z,42.8
2017-05-17T09:00:05.543Z,42.8
2017-05-17T09:02:17.899Z,42.7
2017-05-17T09:04:05.610Z,42.8
2017-05-17T09:06:05.980Z,42.9
2017-05-17T09:08:08.215Z,42.9
2017-05-17T09:10:08.538Z,42.8
2017-05-17T09:12:05.442Z,42.6
2017-05-17T09:14:05.145Z,42.6
2017-05-17T09:16:05.412Z,42.8
2017-05-17T09:18:05.410Z,42.6
2017-05-17T09:20:05.173Z,42.6
2017-05-17T09:22:08.713Z,42.7
2017-05-17T09:24:05.797Z,42.5
2017-05-17T09:26:05.552Z,42.6
2017-05-17T09:28:05.745Z,42.9
2017-05-17T09:30:06.021Z,42.9
2017-05-17T09:32:05.372Z,42.8
2017-05-17T09:34:05.057Z,42.7
2017-05-17T09:36:05.985Z,42.8
2017-05-17T09:38:05.671Z,42.7
2017-05-17T09:40:05.895Z,42.7
2017-05-17T09:42:05.715Z,42.7
2017-05-17T09:44:06.272Z,42.8
2017-05-17T09:46:05.978Z,42.8
2017-05-17T09:48:05.682Z,42.8
2017-05-17T09:50:05.413Z,42.9
2017-05-17T09:52:05.144Z,42.9
2017-05-17T09:54:11.102Z,42.8
2017-05-17T09:56:06.015Z,42.8
2017-05-17T09:58:05.514Z,42.7
2017-05-17T10:00:05.487Z,42.8
2017-05-17T10:02:05.704Z,42.8
2017-05-17T10:04:05.925Z,42.7
2017-05-17T10:06:05.642Z,42.9
2017-05-17T10:08:05.044Z,43
2017-05-17T10:10:05.745Z,43
2017-05-17T10:12:08.209Z,42.9
2017-05-17T10:14:06.002Z,42.8
2017-05-17T10:16:05.845Z,42.9
2017-05-17T10:18:08.437Z,42.7
2017-05-17T10:20:05.102Z,42.7
2017-05-17T10:22:05.797Z,42.7
2017-05-17T10:24:05.652Z,42.6
2017-05-17T10:26:05.145Z,42.7
2017-05-17T10:28:08.359Z,42.7
2017-05-17T10:30:12.699Z,42.6
2017-05-17T10:32:05.776Z,42.6
2017-05-17T10:34:05.997Z,42.7
2017-05-17T10:36:05.740Z,42.6
2017-05-17T10:38:05.455Z,42.6
2017-05-17T10:40:06.633Z,42.7
2017-05-17T10:42:07.721Z,42.7
2017-05-17T10:44:11.726Z,42.7
2017-05-17T10:46:05.627Z,42.5
2017-05-17T10:48:10.545Z,42.7
2017-05-17T10:50:07.490Z,42.5
2017-05-17T10:52:05.364Z,42.4
2017-05-17T10:54:05.082Z,42.6
2017-05-17T10:56:05.851Z,42.6
2017-05-17T10:58:05.600Z,42.6
2017-05-17T11:00:05.524Z,42.5
2017-05-17T11:02:05.815Z,42.5
2017-05-17T11:04:05.510Z,42.5
2017-05-17T11:06:05.365Z,42.5
2017-05-17T11:08:05.048Z,42.5
2017-05-17T11:10:08.356Z,42.5
2017-05-17T11:12:10.112Z,42.4
2017-05-17T11:14:06.773Z,42.5
2017-05-17T11:16:05.524Z,42.5
2017-05-17T11:18:10.651Z,42.5
2017-05-17T11:20:10.803Z,42.5
2017-05-17T11:22:05.524Z,42.5
2017-05-17T11:24:13.389Z,42.4
2017-05-17T11:26:05.131Z,42.3
2017-05-17T11:28:05.947Z,42.3
2017-05-17T11:30:07.431Z,42.4
2017-05-17T11:32:09.177Z,42.3
2017-05-17T11:34:06.110Z,42.3
2017-05-17T11:36:18.721Z,42.3
2017-05-17T11:38:07.059Z,42.3
2017-05-17T11:40:05.284Z,42.3
2017-05-17T11:42:06.015Z,42.2
2017-05-17T11:44:08.274Z,41.9
2017-05-17T11:46:06.005Z,42.1
2017-05-17T11:48:08.341Z,42.1
2017-05-17T11:50:10.176Z,42
2017-05-17T11:52:05.925Z,42
2017-05-17T11:54:05.786Z,42.3
2017-05-17T11:56:05.607Z,42
2017-05-17T11:58:07.824Z,42.1
2017-05-17T12:00:05.264Z,42.1
2017-05-17T12:02:08.555Z,42.3
2017-05-17T12:04:05.246Z,42.3
2017-05-17T12:06:08.830Z,42.4
2017-05-17T12:08:10.700Z,42.3
2017-05-17T12:10:10.968Z,42.4
2017-05-17T12:12:08.386Z,42.4
2017-05-17T12:14:05.047Z,42.4
2017-05-17T12:16:05.780Z,42.4
2017-05-17T12:18:05.776Z,42.4
2017-05-17T12:20:07.987Z,42.4
2017-05-17T12:22:15.819Z,42.3
2017-05-17T12:24:07.659Z,42.5
2017-05-17T12:26:05.383Z,42.5
2017-05-17T12:28:06.498Z,42.4
2017-05-17T12:30:05.429Z,42.3
2017-05-17T12:32:07.663Z,42.3
2017-05-17T12:34:05.377Z,42.3
2017-05-17T12:36:10.207Z,42.5
2017-05-17T12:38:09.728Z,42.5
2017-05-17T12:40:05.613Z,42.5
2017-05-17T12:42:10.633Z,42.5
2017-05-17T12:44:06.741Z,42.2
2017-05-17T12:46:05.709Z,42.5
2017-05-17T12:48:05.532Z,42.3
2017-05-17T12:50:05.477Z,42.2
2017-05-17T12:52:07.784Z,42.5
2017-05-17T12:54:05.493Z,42.5
2017-05-17T12:56:05.305Z,42.7
2017-05-17T12:58:13.582Z,42.5
2017-05-17T13:00:05.522Z,42.5
2017-05-17T13:02:05.218Z,42.5
2017-05-17T13:04:05.955Z,42.6
2017-05-17T13:06:08.180Z,42.7
2017-05-17T13:08:05.882Z,42.7
2017-05-17T13:10:10.863Z,42.6
2017-05-17T13:12:08.189Z,42.6
2017-05-17T13:14:05.419Z,42.8
2017-05-17T13:16:05.140Z,42.6
2017-05-17T13:18:05.181Z,42.7
2017-05-17T13:20:05.429Z,42.8
2017-05-17T13:22:05.184Z,42.6
2017-05-17T13:24:05.628Z,42.6
2017-05-17T13:26:05.340Z,42.6
2017-05-17T13:28:05.198Z,42.5
2017-05-17T13:30:06.066Z,42.4
2017-05-17T13:32:05.319Z,42.3
2017-05-17T13:34:07.507Z,42.4
2017-05-17T13:36:07.822Z,42.3
2017-05-17T13:38:13.953Z,42.3
2017-05-17T13:40:08.216Z,42.3
2017-05-17T13:42:06.251Z,42.3
2017-05-17T13:44:06.001Z,42.3
2017-05-17T13:46:05.925Z,42.3
2017-05-17T13:48:05.954Z,42
2017-05-17T13:50:08.174Z,42
2017-05-17T13:52:05.884Z,42
2017-05-17T13:54:07.747Z,42
2017-05-17T13:56:08.586Z,41.9
2017-05-17T13:58:11.593Z,41.8
2017-05-17T14:00:11.716Z,41.8
2017-05-17T14:02:05.316Z,41.8
2017-05-17T14:04:05.042Z,42
2017-05-17T14:06:06.277Z,42.1
2017-05-17T14:08:05.767Z,42.2
2017-05-17T14:10:06.555Z,42.1
2017-05-17T14:12:05.425Z,41.9
2017-05-17T14:14:05.465Z,42
2017-05-17T14:16:05.902Z,42
2017-05-17T14:18:05.942Z,42.1
2017-05-17T14:20:05.866Z,42.1
2017-05-17T14:22:05.651Z,41.9
2017-05-17T14:24:05.546Z,41.9
2017-05-17T14:26:05.254Z,41.9
2017-05-17T14:28:06.275Z,42.1
2017-05-17T14:30:06.354Z,42.1
2017-05-17T14:32:05.181Z,42.1
2017-05-17T14:34:10.953Z,42
2017-05-17T14:36:05.792Z,42
2017-05-17T14:38:08.013Z,42.2
2017-05-17T14:40:05.296Z,42
2017-05-17T14:42:08.392Z,42.1
2017-05-17T14:44:23.395Z,41.9
2017-05-17T14:46:05.073Z,41.9
2017-05-17T14:48:05.923Z,41.9
2017-05-17T14:50:05.179Z,41.8
2017-05-17T14:52:05.941Z,42
2017-05-17T14:54:06.007Z,41.9
2017-05-17T14:56:05.733Z,42.2
2017-05-17T14:58:05.495Z,42.3
2017-05-17T15:00:05.436Z,42.1
2017-05-17T15:02:05.121Z,42.2
2017-05-17T15:04:08.464Z,42.3
2017-05-17T15:06:06.077Z,42.1
2017-05-17T15:08:05.842Z,42.2
2017-05-17T15:10:05.808Z,42.3
2017-05-17T15:12:05.676Z,42.3
2017-05-17T15:14:05.392Z,42.3
2017-05-17T15:16:05.057Z,42.2
2017-05-17T15:18:06.007Z,42.2
2017-05-17T15:20:10.930Z,42.3
2017-05-17T15:22:05.621Z,42.3
2017-05-17T15:24:05.465Z,42.3
2017-05-17T15:26:05.202Z,42.3
2017-05-17T15:28:10.960Z,42.3
2017-05-17T15:30:05.354Z,42.3
2017-05-17T15:32:05.076Z,42.6
2017-05-17T15:34:05.812Z,42.6
2017-05-17T15:36:05.654Z,42.5
2017-05-17T15:38:10.924Z,42.4
2017-05-17T15:40:08.219Z,42.4
2017-05-17T15:42:05.904Z,42.4
2017-05-17T15:44:05.782Z,42.7
2017-05-17T15:46:05.507Z,42.6
2017-05-17T15:48:05.907Z,42.7
2017-05-17T15:50:05.608Z,42.8
2017-05-17T15:52:07.909Z,41.4
2017-05-17T15:54:05.693Z,41.2
2017-05-17T15:56:05.425Z,40
2017-05-17T15:58:10.740Z,40
2017-05-17T16:00:10.546Z,40.6
2017-05-17T16:02:05.284Z,40.6
2017-05-17T16:04:05.567Z,40.7
2017-05-17T16:06:05.904Z,41.7
2017-05-17T16:08:05.669Z,42.3
2017-05-17T16:10:10.427Z,43.8
2017-05-17T16:12:05.303Z,43.9
2017-05-17T16:14:07.581Z,46.4
2017-05-17T16:16:05.358Z,46.3
2017-05-17T16:18:05.434Z,46.2
2017-05-17T16:20:05.687Z,47.1
2017-05-17T16:22:05.386Z,47
2017-05-17T16:24:05.241Z,44.9
2017-05-17T16:26:06.128Z,44
2017-05-17T16:28:05.862Z,43
2017-05-17T16:30:05.750Z,43.8
2017-05-17T16:32:15.618Z,43.9
2017-05-17T16:34:05.312Z,43.9
2017-05-17T16:36:06.190Z,43.5
2017-05-17T16:38:05.200Z,43.6
2017-05-17T16:40:06.063Z,43.8
2017-05-17T16:42:08.672Z,43.1
2017-05-17T16:44:05.892Z,43.1
2017-05-17T16:46:05.579Z,43
2017-05-17T16:48:10.554Z,42.7
2017-05-17T16:50:06.139Z,42.7
2017-05-17T16:52:05.687Z,42.6
2017-05-17T16:54:05.410Z,42.4
2017-05-17T16:56:07.725Z,42.5
2017-05-17T16:58:06.503Z,42.3
2017-05-17T17:00:05.382Z,41.6
2017-05-17T17:02:07.721Z,41.4
2017-05-17T17:04:08.341Z,40.9
2017-05-17T17:06:06.238Z,40.9
2017-05-17T17:08:11.084Z,40.9
2017-05-17T17:10:05.558Z,40.9
2017-05-17T17:12:08.038Z,40.9
2017-05-17T17:14:08.567Z,40.9
2017-05-17T17:16:05.874Z,40.7
2017-05-17T17:18:06.009Z,40.9
2017-05-17T17:20:05.991Z,40.6
2017-05-17T17:22:08.259Z,40.2
2017-05-17T17:24:05.282Z,40
2017-05-17T17:26:05.193Z,40.3
2017-05-17T17:28:05.978Z,40.1
2017-05-17T17:30:05.695Z,40.2
2017-05-17T17:32:05.344Z,40
2017-05-17T17:34:05.081Z,39.4
2017-05-17T17:36:05.961Z,38.9
2017-05-17T17:38:07.781Z,38.8
2017-05-17T17:40:05.450Z,38.8
2017-05-17T17:42:05.282Z,38.9
2017-05-17T17:44:10.979Z,38.9
2017-05-17T17:46:07.755Z,38.6
2017-05-17T17:48:05.657Z,38.7
2017-05-17T17:50:07.912Z,38.9
2017-05-17T17:52:05.578Z,38.9
2017-05-17T17:54:05.275Z,38.9
2017-05-17T17:56:05.481Z,38.6
2017-05-17T17:58:05.730Z,38.5
2017-05-17T18:00:05.624Z,38.2
2017-05-17T18:02:05.317Z,38.5
2017-05-17T18:04:05.073Z,38.6
2017-05-17T18:06:08.862Z,38.4
2017-05-17T18:08:05.624Z,38.4
2017-05-17T18:10:05.412Z,39.1
2017-05-17T18:12:05.821Z,39.3
2017-05-17T18:14:05.068Z,38.8
2017-05-17T18:16:07.854Z,38.9
2017-05-17T18:18:06.052Z,38.9
2017-05-17T18:20:05.817Z,38.8
2017-05-17T18:22:05.547Z,38.8
2017-05-17T18:24:07.790Z,38.7
2017-05-17T18:26:08.006Z,39.1
2017-05-17T18:28:08.214Z,39.3
2017-05-17T18:30:05.932Z,39.3
2017-05-17T18:32:05.666Z,39.2
2017-05-17T18:34:05.432Z,39.2
2017-05-17T18:36:05.313Z,39.1
2017-05-17T18:38:11.357Z,38.8
2017-05-17T18:40:05.265Z,39.2
2017-05-17T18:42:08.631Z,39.5
2017-05-17T18:44:05.834Z,39.5
2017-05-17T18:46:13.088Z,39.5
2017-05-17T18:48:05.792Z,39.5
2017-05-17T18:50:05.982Z,39.3
2017-05-17T18:52:05.656Z,39.3
2017-05-17T18:54:14.388Z,39.8
2017-05-17T18:56:05.065Z,39.8
2017-05-17T18:58:08.342Z,39.6
2017-05-17T19:00:05.202Z,39.6
2017-05-17T19:02:08.510Z,39.5
2017-05-17T19:04:05.363Z,39.5
2017-05-17T19:06:05.223Z,39.6
2017-05-17T19:08:08.525Z,39.6
2017-05-17T19:10:05.250Z,39.5
2017-05-17T19:12:05.669Z,39.4
2017-05-17T19:14:05.947Z,39.3
2017-05-17T19:16:05.644Z,39.2
2017-05-17T19:18:05.678Z,39.3
2017-05-17T19:20:05.714Z,39.2
2017-05-17T19:22:05.395Z,39.8
2017-05-17T19:24:05.465Z,39.3
2017-05-17T19:26:05.227Z,39.4
2017-05-17T19:28:05.984Z,39.4
2017-05-17T19:30:05.955Z,39.2
2017-05-17T19:32:08.249Z,39.2
2017-05-17T19:34:06.048Z,39.2
2017-05-17T19:36:08.538Z,39.5
2017-05-17T19:38:05.235Z,39.5
2017-05-17T19:40:06.929Z,39.5
2017-05-17T19:42:10.540Z,39.8
2017-05-17T19:44:08.122Z,39.7
2017-05-17T19:46:08.349Z,39.7
2017-05-17T19:48:05.463Z,39.6
2017-05-17T19:50:05.697Z,39.1
2017-05-17T19:52:05.790Z,38.9
2017-05-17T19:54:05.617Z,39.4
2017-05-17T19:56:05.878Z,39.4
2017-05-17T19:58:08.087Z,39.5
2017-05-17T20:00:05.706Z,39.5
2017-05-17T20:02:05.473Z,39.6
2017-05-17T20:04:05.223Z,39.5
2017-05-17T20:06:06.124Z,39.3
2017-05-17T20:08:05.516Z,39.6
2017-05-17T20:10:07.815Z,39.4
2017-05-17T20:12:05.609Z,39.4
2017-05-17T20:14:05.273Z,39.6
2017-05-17T20:16:08.023Z,39.5
2017-05-17T20:18:06.065Z,39.5
2017-05-17T20:20:05.813Z,39.5
2017-05-17T20:22:05.535Z,39.5
2017-05-17T20:24:12.916Z,39.3
2017-05-17T20:26:05.152Z,39.3
2017-05-17T20:28:05.914Z,39.5
2017-05-17T20:30:05.761Z,39.5
2017-05-17T20:32:10.485Z,39.3
2017-05-17T20:34:05.164Z,39.3
2017-05-17T20:36:05.537Z,39.3
2017-05-17T20:38:07.789Z,39.3
2017-05-17T20:40:08.050Z,39.3
2017-05-17T20:42:06.107Z,39.3
2017-05-17T20:44:05.811Z,39.3
2017-05-17T20:46:05.515Z,39.3
2017-05-17T20:48:05.639Z,39.3
2017-05-17T20:50:05.390Z,39.3
2017-05-17T20:52:05.660Z,39.1
2017-05-17T20:54:06.043Z,39.3
2017-05-17T20:56:05.764Z,39.1
2017-05-17T20:58:05.513Z,39.1
2017-05-17T21:00:05.344Z,39.1
2017-05-17T21:02:05.064Z,39.1
2017-05-17T21:04:08.270Z,39
2017-05-17T21:06:06.011Z,39
2017-05-17T21:08:05.701Z,39
2017-05-17T21:10:05.415Z,39
2017-05-17T21:12:05.282Z,39
2017-05-17T21:14:05.129Z,38.8
2017-05-17T21:16:08.379Z,38.8
2017-05-17T21:18:05.328Z,38.8
2017-05-17T21:20:05.606Z,38.8
2017-05-17T21:22:05.488Z,38.8
2017-05-17T21:24:05.243Z,38.8
2017-05-17T21:26:05.953Z,39
2017-05-17T21:28:08.350Z,38.9
2017-05-17T21:30:05.658Z,38.9
2017-05-17T21:32:05.873Z,38.6
2017-05-17T21:34:10.681Z,38.8
2017-05-17T21:36:05.847Z,38.7
2017-05-17T21:38:10.692Z,38.6
2017-05-17T21:40:08.011Z,38.4
2017-05-17T21:42:05.745Z,38.4
2017-05-17T21:44:05.659Z,38.4
2017-05-17T21:46:07.963Z,38.5
2017-05-17T21:48:05.809Z,38.4
2017-05-17T21:50:05.527Z,38.4
2017-05-17T21:52:05.270Z,38.5
2017-05-17T21:54:08.590Z,38.4
2017-05-17T21:56:05.312Z,38.5
2017-05-17T21:58:05.029Z,38.4
2017-05-17T22:00:05.920Z,38.5
2017-05-17T22:02:05.625Z,38.3
2017-05-17T22:04:05.372Z,38.3
2017-05-17T22:06:05.229Z,38.3
2017-05-17T22:08:06.595Z,38.3
2017-05-17T22:10:07.958Z,38.6
2017-05-17T22:12:05.788Z,38.4
2017-05-17T22:14:05.058Z,38.4
2017-05-17T22:16:05.758Z,38.4
2017-05-17T22:18:05.977Z,38.7
2017-05-17T22:20:05.249Z,38.5
2017-05-17T22:22:05.949Z,38.5
2017-05-17T22:24:05.991Z,38.3
2017-05-17T22:26:05.929Z,38.5
2017-05-17T22:28:05.661Z,38.5
2017-05-17T22:30:05.745Z,38.6
2017-05-17T22:32:05.526Z,38.7
2017-05-17T22:34:05.683Z,38.9
2017-05-17T22:36:05.566Z,38.8
2017-05-17T22:38:08.329Z,38.8
2017-05-17T22:40:05.286Z,38.8
2017-05-17T22:42:13.701Z,38.9
2017-05-17T22:44:05.510Z,38.9
2017-05-17T22:46:10.940Z,38.9
2017-05-17T22:48:05.988Z,38.9
2017-05-17T22:50:05.673Z,39
2017-05-17T22:52:05.394Z,39.1
2017-05-17T22:54:10.260Z,39.2
2017-05-17T22:56:06.038Z,39.2
2017-05-17T22:58:05.750Z,39.2
2017-05-17T23:00:08.684Z,39.2
2017-05-17T23:02:05.396Z,39.2
2017-05-17T23:04:07.632Z,39.5
2017-05-17T23:06:06.063Z,39.4
2017-05-17T23:08:05.742Z,39.5
2017-05-17T23:10:05.454Z,39.6
2017-05-17T23:12:05.303Z,39.4
2017-05-17T23:14:05.559Z,39.7
2017-05-17T23:16:05.278Z,39.5
2017-05-17T23:18:05.285Z,39.6
2017-05-17T23:20:08.534Z,39.6
2017-05-17T23:22:05.213Z,39.6
2017-05-17T23:24:05.608Z,39.7
2017-05-17T23:26:05.833Z,39.6
2017-05-17T23:28:07.555Z,39.8
2017-05-17T23:30:05.497Z,39.8
2017-05-17T23:32:05.244Z,39.9
2017-05-17T23:34:08.519Z,40
2017-05-17T23:36:06.104Z,40
2017-05-17T23:38:05.812Z,40
2017-05-17T23:40:05.033Z,40.1
2017-05-17T23:42:05.879Z,40
2017-05-17T23:44:05.124Z,40.1
2017-05-17T23:46:05.896Z,40.2
2017-05-17T23:48:05.759Z,40.2
2017-05-17T23:50:05.613Z,40.3
2017-05-17T23:52:08.035Z,40.4
2017-05-17T23:54:05.749Z,40.4
2017-05-17T23:56:05.444Z,40.4
2017-05-17T23:58:05.193Z,40.5
